createdAt,value
2022-12-25T00:01:27.101Z,101212.97
2022-12-25T00:03:59.045Z,101227.63
2022-12-25T00:06:28.695Z,101216.94
2022-12-25T00:08:57.371Z,101219.59
2022-12-25T00:11:26.256Z,101234.22
2022-12-25T00:13:57.201Z,101223.97
2022-12-25T00:16:28.770Z,101249.50
2022-12-25T00:19:02.892Z,101253.63
2022-12-25T00:21:34.532Z,101261.13
2022-12-25T00:24:04.225Z,101253.13
2022-12-25T00:26:35.015Z,101248.00
2022-12-25T00:29:05.912Z,101263.84
2022-12-25T00:31:38.412Z,101262.84
2022-12-25T00:34:10.471Z,101256.66
2022-12-25T00:36:41.840Z,101266.63
2022-12-25T00:39:13.007Z,101278.47
2022-12-25T00:41:59.937Z,101259.13
2022-12-25T00:44:31.005Z,101268.16
2022-12-25T00:47:02.079Z,101291.59
2022-12-25T00:49:30.893Z,101287.63
2022-12-25T00:52:02.771Z,101289.16
2022-12-25T00:54:31.658Z,101297.16
2022-12-25T00:57:00.297Z,101285.91
2022-12-25T00:59:33.448Z,101307.38
2022-12-25T01:02:23.179Z,101302.63
2022-12-25T01:04:54.489Z,101318.47
2022-12-25T01:07:26.042Z,101333.53
2022-12-25T01:10:19.423Z,101333.47
2022-12-25T01:12:48.159Z,101326.22
2022-12-25T01:15:16.860Z,101328.16
2022-12-25T01:17:55.955Z,101326.22
2022-12-25T01:20:27.597Z,101317.47
2022-12-25T01:22:59.336Z,101308.72
2022-12-25T01:25:28.134Z,101319.81
2022-12-25T01:27:59.025Z,101321.41
2022-12-25T01:30:27.763Z,101319.06
2022-12-25T01:32:56.413Z,101317.09
2022-12-25T01:35:27.912Z,101322.25
2022-12-25T01:37:56.806Z,101325.44
2022-12-25T01:40:25.702Z,101333.38
2022-12-25T01:42:54.489Z,101328.56
2022-12-25T01:45:40.994Z,101313.50
2022-12-25T01:48:26.677Z,101309.41
2022-12-25T01:51:20.936Z,101319.38
2022-12-25T01:53:49.990Z,101317.38
2022-12-25T01:56:21.082Z,101307.03
2022-12-25T01:58:49.998Z,101310.22
2022-12-25T02:01:18.711Z,101321.59
2022-12-25T02:03:51.120Z,101306.16
2022-12-25T02:06:19.878Z,101312.56
2022-12-25T02:08:48.570Z,101323.72
2022-12-25T02:11:41.288Z,101320.47
2022-12-25T02:14:10.040Z,101325.28
2022-12-25T02:16:56.519Z,101336.41
2022-12-25T02:19:57.167Z,101331.59
2022-12-25T02:23:01.233Z,101336.28
2022-12-25T02:26:04.549Z,101351.28
2022-12-25T02:28:46.292Z,101360.78
2022-12-25T02:31:19.242Z,101364.00
2022-12-25T02:34:06.338Z,101360.03
2022-12-25T02:36:46.832Z,101370.31
2022-12-25T02:39:43.024Z,101368.03
2022-12-25T02:43:05.331Z,101376.72
2022-12-25T02:46:01.670Z,101375.06
2022-12-25T02:48:53.066Z,101380.59
2022-12-25T02:51:51.488Z,101376.63
2022-12-25T02:54:45.253Z,101389.13
2022-12-25T02:57:35.919Z,101387.41
2022-12-25T03:00:33.507Z,101395.44
2022-12-25T03:03:25.560Z,101393.94
2022-12-25T03:06:20.578Z,101404.84
2022-12-25T03:09:16.265Z,101412.41
2022-12-25T03:11:52.940Z,101428.66
2022-12-25T03:14:40.044Z,101430.25
2022-12-25T03:17:09.977Z,101435.06
2022-12-25T03:19:59.788Z,101439.06
2022-12-25T03:22:49.442Z,101433.69
2022-12-25T03:25:37.925Z,101441.59
2022-12-25T03:28:11.861Z,101449.50
2022-12-25T03:31:16.542Z,101438.47
2022-12-25T03:34:25.531Z,101457.50
2022-12-25T03:37:43.922Z,101470.31
2022-12-25T03:40:59.885Z,101482.50
2022-12-25T03:43:55.361Z,101482.50
2022-12-25T03:46:47.266Z,101488.47
2022-12-25T03:50:02.150Z,101494.16
2022-12-25T03:52:54.114Z,101516.38
2022-12-25T03:55:42.723Z,101514.78
2022-12-25T03:58:41.594Z,101519.50
2022-12-25T04:01:29.346Z,101524.66
2022-12-25T04:04:16.503Z,101527.47
2022-12-25T04:07:04.945Z,101538.59
2022-12-25T04:09:55.056Z,101531.94
2022-12-25T04:12:49.489Z,101543.41
2022-12-25T04:15:36.809Z,101546.50
2022-12-25T04:18:24.830Z,101560.81
2022-12-25T04:21:14.936Z,101579.09
2022-12-25T04:24:07.930Z,101570.22
2022-12-25T04:26:57.425Z,101565.44
2022-12-25T04:29:44.544Z,101569.41
2022-12-25T04:32:31.584Z,101571.38
2022-12-25T04:35:20.351Z,101578.13
2022-12-25T04:37:53.932Z,101583.50
2022-12-25T04:40:25.664Z,101571.59
2022-12-25T04:42:58.587Z,101583.91
2022-12-25T04:45:27.416Z,101589.97
2022-12-25T04:47:56.160Z,101584.44
2022-12-25T04:50:24.869Z,101586.78
2022-12-25T04:52:53.517Z,101592.75
2022-12-25T04:55:23.311Z,101590.06
2022-12-25T04:57:56.145Z,101586.97
2022-12-25T05:00:25.025Z,101595.63
2022-12-25T05:02:53.970Z,101604.28
2022-12-25T05:05:25.776Z,101616.25
2022-12-25T05:08:01.493Z,101621.38
2022-12-25T05:10:30.514Z,101628.53
2022-12-25T05:13:04.297Z,101619.22
2022-12-25T05:15:35.892Z,101617.44
2022-12-25T05:18:06.223Z,101627.38
2022-12-25T05:20:39.915Z,101612.19
2022-12-25T05:23:13.111Z,101623.38
2022-12-25T05:25:47.460Z,101626.50
2022-12-25T05:28:16.407Z,101617.00
2022-12-25T05:30:50.242Z,101625.78
2022-12-25T05:33:21.458Z,101634.59
2022-12-25T05:35:50.218Z,101626.66
2022-12-25T05:38:21.280Z,101621.94
2022-12-25T05:40:52.819Z,101620.34
2022-12-25T05:43:24.798Z,101626.75
2022-12-25T05:45:56.058Z,101640.28
2022-12-25T05:48:24.795Z,101621.94
2022-12-25T05:50:53.414Z,101646.56
2022-12-25T05:53:22.088Z,101668.00
2022-12-25T05:55:54.371Z,101669.31
2022-12-25T05:58:25.557Z,101668.13
2022-12-25T06:00:54.275Z,101671.34
2022-12-25T06:03:30.892Z,101675.28
2022-12-25T06:06:08.770Z,101669.59
2022-12-25T06:08:40.743Z,101672.13
2022-12-25T06:11:14.168Z,101678.88
2022-12-25T06:13:45.529Z,101671.66
2022-12-25T06:16:14.307Z,101673.25
2022-12-25T06:18:46.293Z,101673.56
2022-12-25T06:21:16.595Z,101677.69
2022-12-25T06:23:45.829Z,101699.78
2022-12-25T06:26:19.610Z,101695.59
2022-12-25T06:28:48.925Z,101701.19
2022-12-25T06:31:21.273Z,101698.28
2022-12-25T06:33:50.355Z,101715.22
2022-12-25T06:36:25.198Z,101712.44
2022-12-25T06:38:54.669Z,101712.44
2022-12-25T06:41:28.514Z,101725.16
2022-12-25T06:44:00.339Z,101716.41
2022-12-25T06:46:30.652Z,101738.63
2022-12-25T06:49:02.901Z,101728.84
2022-12-25T06:51:42.403Z,101753.84
2022-12-25T06:54:16.068Z,101748.56
2022-12-25T06:56:47.022Z,101741.72
2022-12-25T06:59:15.850Z,101753.31
2022-12-25T07:01:52.523Z,101757.06
2022-12-25T07:04:41.587Z,101781.75
2022-12-25T07:07:13.275Z,101788.47
2022-12-25T07:09:43.352Z,101792.22
2022-12-25T07:12:18.635Z,101811.88
2022-12-25T07:14:52.834Z,101817.44
2022-12-25T07:17:21.998Z,101817.78
2022-12-25T07:19:55.031Z,101817.75
2022-12-25T07:22:26.549Z,101817.75
2022-12-25T07:24:56.188Z,101822.50
2022-12-25T07:27:26.122Z,101820.94
2022-12-25T07:29:57.169Z,101819.34
2022-12-25T07:32:26.000Z,101825.75
2022-12-25T07:34:57.672Z,101838.78
2022-12-25T07:37:26.459Z,101829.13
2022-12-25T07:40:00.813Z,101833.84
2022-12-25T07:42:29.558Z,101831.75
2022-12-25T07:44:58.200Z,101830.47
2022-12-25T07:47:26.938Z,101837.63
2022-12-25T07:50:04.376Z,101839.03
2022-12-25T07:52:36.692Z,101831.13
2022-12-25T07:55:11.083Z,101835.06
2022-12-25T07:57:42.977Z,101833.97
2022-12-25T08:00:12.257Z,101833.53
2022-12-25T08:02:41.398Z,101835.72
2022-12-25T08:05:13.868Z,101847.16
2022-12-25T08:07:51.253Z,101847.34
2022-12-25T08:10:26.521Z,101862.06
2022-12-25T08:12:57.455Z,101855.16
2022-12-25T08:15:27.989Z,101845.53
2022-12-25T08:17:56.726Z,101849.31
2022-12-25T08:20:25.495Z,101839.75
2022-12-25T08:22:54.723Z,101842.97
2022-12-25T08:25:23.661Z,101856.47
2022-12-25T08:27:52.462Z,101840.38
2022-12-25T08:30:23.452Z,101840.31
2022-12-25T08:32:52.175Z,101831.63
2022-12-25T08:35:20.823Z,101830.88
2022-12-25T08:37:51.950Z,101834.66
2022-12-25T08:40:22.948Z,101829.69
2022-12-25T08:42:51.688Z,101832.59
2022-12-25T08:45:28.524Z,101833.63
2022-12-25T08:48:01.597Z,101826.03
2022-12-25T08:50:32.750Z,101822.97
2022-12-25T08:53:01.515Z,101830.06
2022-12-25T08:55:30.777Z,101828.06
2022-12-25T08:57:59.460Z,101833.31
2022-12-25T09:00:37.842Z,101838.31
2022-12-25T09:03:06.799Z,101846.44
2022-12-25T09:05:39.120Z,101848.47
2022-12-25T09:08:13.491Z,101853.84
2022-12-25T09:10:43.067Z,101847.38
2022-12-25T09:13:18.010Z,101854.72
2022-12-25T09:15:46.892Z,101851.66
2022-12-25T09:18:15.571Z,101849.25
2022-12-25T09:20:44.601Z,101846.09
2022-12-25T09:23:14.408Z,101844.03
2022-12-25T09:25:43.480Z,101850.63
2022-12-25T09:28:15.167Z,101850.63
2022-12-25T09:30:43.921Z,101854.53
2022-12-25T09:33:12.669Z,101852.50
2022-12-25T09:35:42.663Z,101854.09
2022-12-25T09:38:12.705Z,101844.91
2022-12-25T09:40:42.001Z,101849.47
2022-12-25T09:43:18.383Z,101847.84
2022-12-25T09:45:47.229Z,101856.88
2022-12-25T09:48:19.377Z,101856.88
2022-12-25T09:50:59.369Z,101850.47
2022-12-25T09:53:34.834Z,101849.22
2022-12-25T09:56:20.416Z,101857.09
2022-12-25T09:58:49.482Z,101848.69
2022-12-25T10:01:56.420Z,101857.19
2022-12-25T10:05:03.668Z,101857.44
2022-12-25T10:08:05.487Z,101861.41
2022-12-25T10:11:03.100Z,101869.72
2022-12-25T10:13:45.536Z,101853.25
2022-12-25T10:16:27.668Z,101849.84
2022-12-25T10:19:27.966Z,101859.72
2022-12-25T10:22:06.869Z,101857.28
2022-12-25T10:24:49.402Z,101851.72
2022-12-25T10:27:48.993Z,101847.81
2022-12-25T10:30:21.234Z,101842.97
2022-12-25T10:32:52.758Z,101838.13
2022-12-25T10:35:33.796Z,101836.53
2022-12-25T10:38:16.857Z,101845.50
2022-12-25T10:41:06.667Z,101837.78
2022-12-25T10:43:53.209Z,101840.31
2022-12-25T10:46:24.053Z,101840.69
2022-12-25T10:49:02.421Z,101841.72
2022-12-25T10:51:40.030Z,101840.59
2022-12-25T10:54:23.387Z,101851.16
2022-12-25T10:57:06.041Z,101843.34
2022-12-25T10:59:58.361Z,101844.06
2022-12-25T11:02:29.437Z,101840.84
2022-12-25T11:05:09.582Z,101831.00
2022-12-25T11:07:51.977Z,101827.97
2022-12-25T11:10:33.086Z,101828.78
2022-12-25T11:13:08.778Z,101824.03
2022-12-25T11:15:43.306Z,101827.97
2022-12-25T11:18:30.660Z,101829.13
2022-12-25T11:21:23.473Z,101833.44
2022-12-25T11:24:01.821Z,101832.34
2022-12-25T11:26:36.880Z,101828.97
2022-12-25T11:29:23.277Z,101826.19
2022-12-25T11:31:56.486Z,101816.25
2022-12-25T11:34:45.626Z,101831.66
2022-12-25T11:37:22.536Z,101823.91
2022-12-25T11:39:54.395Z,101819.34
2022-12-25T11:42:35.846Z,101821.25
2022-12-25T11:45:26.550Z,101812.00
2022-12-25T11:48:05.009Z,101816.88
2022-12-25T11:50:39.437Z,101828.56
2022-12-25T11:53:26.167Z,101826.59
2022-12-25T11:56:05.171Z,101823.66
2022-12-25T11:58:49.020Z,101831.72
2022-12-25T12:01:20.512Z,101827.31
2022-12-25T12:03:55.054Z,101829.56
2022-12-25T12:06:55.818Z,101826.78
2022-12-25T12:09:35.685Z,101825.97
2022-12-25T12:12:22.736Z,101810.66
2022-12-25T12:15:03.428Z,101821.47
2022-12-25T12:17:33.645Z,101818.47
2022-12-25T12:20:28.662Z,101814.59
2022-12-25T12:23:01.644Z,101824.00
2022-12-25T12:25:33.126Z,101831.19
2022-12-25T12:28:05.709Z,101830.66
2022-12-25T12:30:41.805Z,101835.00
2022-12-25T12:33:21.799Z,101838.41
2022-12-25T12:35:50.608Z,101844.41
2022-12-25T12:38:23.965Z,101845.13
2022-12-25T12:41:01.353Z,101857.16
2022-12-25T12:43:36.086Z,101847.28
2022-12-25T12:46:30.169Z,101856.06
2022-12-25T12:49:24.519Z,101860.88
2022-12-25T12:52:25.356Z,101864.22
2022-12-25T12:55:07.712Z,101859.63
2022-12-25T12:57:41.296Z,101882.16
2022-12-25T13:00:24.708Z,101878.56
2022-12-25T13:03:36.636Z,101893.41
2022-12-25T13:06:29.151Z,101877.31
2022-12-25T13:09:17.191Z,101880.09
2022-12-25T13:11:46.201Z,101881.50
2022-12-25T13:14:24.283Z,101868.13
2022-12-25T13:16:55.437Z,101872.28
2022-12-25T13:19:30.276Z,101875.50
2022-12-25T13:22:04.744Z,101875.53
2022-12-25T13:24:38.132Z,101882.44
2022-12-25T13:27:28.031Z,101895.25
2022-12-25T13:29:57.426Z,101889.38
2022-12-25T13:32:29.867Z,101886.41
2022-12-25T13:35:00.553Z,101886.53
2022-12-25T13:37:32.783Z,101894.72
2022-12-25T13:40:20.142Z,101887.56
2022-12-25T13:42:56.215Z,101870.16
2022-12-25T13:45:32.783Z,101869.56
2022-12-25T13:48:17.744Z,101874.19
2022-12-25T13:50:58.284Z,101882.50
2022-12-25T13:53:28.722Z,101873.97
2022-12-25T13:56:02.905Z,101857.38
2022-12-25T13:58:38.438Z,101860.50
2022-12-25T14:01:08.116Z,101851.81
2022-12-25T14:03:46.236Z,101848.84
2022-12-25T14:06:24.749Z,101849.31
2022-12-25T14:08:56.674Z,101844.69
2022-12-25T14:11:28.246Z,101840.31
2022-12-25T14:14:06.861Z,101829.69
2022-12-25T14:16:38.902Z,101824.50
2022-12-25T14:19:26.835Z,101827.63
2022-12-25T14:22:19.616Z,101826.91
2022-12-25T14:24:48.980Z,101815.75
2022-12-25T14:27:31.020Z,101805.06
2022-12-25T14:30:15.241Z,101802.28
2022-12-25T14:32:54.109Z,101814.97
2022-12-25T14:35:24.118Z,101817.03
2022-12-25T14:37:57.919Z,101829.00
2022-12-25T14:40:32.621Z,101844.44
2022-12-25T14:43:06.354Z,101846.28
2022-12-25T14:45:41.617Z,101851.56
2022-12-25T14:48:25.591Z,101843.03
2022-12-25T14:51:04.039Z,101840.75
2022-12-25T14:53:41.528Z,101821.03
2022-12-25T14:56:12.486Z,101819.53
2022-12-25T14:58:52.692Z,101796.28
2022-12-25T15:01:33.334Z,101791.19
2022-12-25T15:04:08.723Z,101771.41
2022-12-25T15:06:52.592Z,101750.44
2022-12-25T15:09:23.429Z,101742.34
2022-12-25T15:11:57.414Z,101751.13
2022-12-25T15:14:27.559Z,101743.75
2022-12-25T15:17:01.727Z,101739.72
2022-12-25T15:19:37.274Z,101729.00
2022-12-25T15:22:11.163Z,101708.72
2022-12-25T15:24:42.912Z,101703.06
2022-12-25T15:27:22.187Z,101700.44
2022-12-25T15:32:39.664Z,101699.53
2022-12-25T15:35:18.160Z,101702.84
2022-12-25T15:37:47.795Z,101701.38
2022-12-25T15:40:18.002Z,101698.94
2022-12-25T15:42:50.769Z,101699.97
2022-12-25T15:45:25.214Z,101702.03
2022-12-25T15:47:54.118Z,101692.59
2022-12-25T15:50:31.043Z,101702.50
2022-12-25T15:53:05.262Z,101710.13
2022-12-25T15:55:35.021Z,101708.50
2022-12-25T15:58:03.792Z,101700.19
2022-12-25T16:00:32.802Z,101693.06
2022-12-25T16:03:01.908Z,101674.72
2022-12-25T16:05:33.105Z,101680.59
2022-12-25T16:08:04.877Z,101693.31
2022-12-25T16:10:38.471Z,101695.34
2022-12-25T16:13:12.253Z,101696.50
2022-12-25T16:15:43.190Z,101694.44
2022-12-25T16:18:14.719Z,101705.75
2022-12-25T16:20:46.474Z,101704.78
2022-12-25T16:23:16.785Z,101702.84
2022-12-25T16:25:45.650Z,101685.47
2022-12-25T16:28:14.414Z,101685.22
2022-12-25T16:30:43.492Z,101672.56
2022-12-25T16:33:16.825Z,101662.66
2022-12-25T16:35:48.770Z,101646.75
2022-12-25T16:38:17.495Z,101611.97
2022-12-25T16:41:04.322Z,101612.91
2022-12-25T16:43:34.918Z,101613.59
2022-12-25T16:46:11.319Z,101624.59
2022-12-25T16:48:41.821Z,101608.38
2022-12-25T16:51:19.355Z,101601.38
2022-12-25T16:53:48.499Z,101600.88
2022-12-25T16:56:28.973Z,101616.53
2022-12-25T16:58:59.367Z,101620.47
2022-12-25T17:01:29.242Z,101622.06
2022-12-25T17:04:03.603Z,101615.00
2022-12-25T17:06:32.521Z,101605.91
2022-12-25T17:09:03.607Z,101628.53
2022-12-25T17:11:34.782Z,101641.31
2022-12-25T17:14:05.451Z,101649.25
2022-12-25T17:16:36.992Z,101651.88
2022-12-25T17:19:12.187Z,101658.13
2022-12-25T17:21:40.887Z,101664.25
2022-12-25T17:24:12.584Z,101664.69
2022-12-25T17:26:42.268Z,101659.97
2022-12-25T17:29:15.974Z,101635.78
2022-12-25T17:31:49.271Z,101641.19
2022-12-25T17:34:20.245Z,101643.84
2022-12-25T17:36:49.232Z,101642.41
2022-12-25T17:39:17.927Z,101638.16
2022-12-25T17:41:46.783Z,101631.00
2022-12-25T17:44:18.439Z,101627.72
2022-12-25T17:46:47.206Z,101630.06
2022-12-25T17:49:20.472Z,101640.31
2022-12-25T17:51:51.902Z,101655.00
2022-12-25T17:54:20.712Z,101660.53
2022-12-25T17:56:50.071Z,101651.81
2022-12-25T17:59:19.305Z,101651.22
2022-12-25T18:01:48.887Z,101655.72
2022-12-25T18:04:17.726Z,101645.78
2022-12-25T18:06:49.698Z,101655.47
2022-12-25T18:09:23.403Z,101655.56
2022-12-25T18:11:52.259Z,101649.91
2022-12-25T18:14:20.943Z,101650.38
2022-12-25T18:16:49.700Z,101647.56
2022-12-25T18:19:20.519Z,101653.25
2022-12-25T18:21:52.225Z,101667.03
2022-12-25T18:24:25.551Z,101669.19
2022-12-25T18:26:56.998Z,101659.13
2022-12-25T18:29:28.175Z,101652.84
2022-12-25T18:31:56.984Z,101646.19
2022-12-25T18:34:25.747Z,101641.03
2022-12-25T18:36:54.480Z,101636.31
2022-12-25T18:39:23.122Z,101631.66
2022-12-25T18:42:10.344Z,101645.97
2022-12-25T18:44:38.786Z,101644.41
2022-12-25T18:47:07.482Z,101671.16
2022-12-25T18:49:36.258Z,101663.78
2022-12-25T18:52:48.031Z,101641.19
2022-12-25T18:54:55.263Z,101601.78
2022-12-25T18:57:28.805Z,101605.25
2022-12-25T18:59:57.528Z,101613.34
2022-12-25T19:02:29.083Z,101619.75
2022-12-25T19:05:00.692Z,101633.47
2022-12-25T19:07:29.453Z,101636.81
2022-12-25T19:09:58.143Z,101643.16
2022-12-25T19:12:27.336Z,101640.72
2022-12-25T19:14:55.974Z,101619.00
2022-12-25T19:17:31.351Z,101602.59
2022-12-25T19:20:01.586Z,101598.94
2022-12-25T19:22:35.152Z,101622.00
2022-12-25T19:25:03.933Z,101624.28
2022-12-25T19:27:36.035Z,101628.16
2022-12-25T19:30:05.218Z,101631.28
2022-12-25T19:32:33.902Z,101643.34
2022-12-25T19:35:05.174Z,101620.41
2022-12-25T19:37:39.263Z,101590.16
2022-12-25T19:40:12.645Z,101587.84
2022-12-25T19:42:41.372Z,101586.94
2022-12-25T19:45:13.470Z,101580.44
2022-12-25T19:47:51.433Z,101574.53
2022-12-25T19:50:20.131Z,101572.28
2022-12-25T19:52:49.021Z,101573.47
2022-12-25T19:55:20.800Z,101566.50
2022-12-25T19:57:52.463Z,101563.00
2022-12-25T20:00:21.269Z,101576.41
2022-12-25T20:02:50.069Z,101579.06
2022-12-25T20:05:28.546Z,101580.69
2022-12-25T20:08:00.544Z,101573.34
2022-12-25T20:10:29.647Z,101571.13
2022-12-25T20:12:58.285Z,101569.09
2022-12-25T20:15:27.125Z,101558.78
2022-12-25T20:17:56.014Z,101564.25
2022-12-25T20:20:25.176Z,101560.75
2022-12-25T20:22:56.804Z,101562.00
2022-12-25T20:25:26.663Z,101567.44
2022-12-25T20:27:57.771Z,101576.03
2022-12-25T20:30:29.495Z,101576.81
2022-12-25T20:33:00.958Z,101567.88
2022-12-25T20:35:32.427Z,101565.91
2022-12-25T20:38:01.231Z,101568.78
2022-12-25T20:40:52.900Z,101569.97
2022-12-25T20:43:23.993Z,101565.28
2022-12-25T20:45:55.332Z,101572.44
2022-12-25T20:48:24.872Z,101569.31
2022-12-25T20:50:54.142Z,101565.72
2022-12-25T20:53:22.780Z,101562.06
2022-12-25T20:55:53.866Z,101544.63
2022-12-25T20:58:22.574Z,101541.41
2022-12-25T21:00:54.167Z,101545.94
2022-12-25T21:03:23.018Z,101528.44
2022-12-25T21:05:58.559Z,101532.09
2022-12-25T21:08:27.999Z,101531.94
2022-12-25T21:11:01.386Z,101520.63
2022-12-25T21:13:32.716Z,101518.22
2022-12-25T21:16:17.467Z,101510.81
2022-12-25T21:18:48.777Z,101505.28
2022-12-25T21:21:18.131Z,101504.50
2022-12-25T21:23:49.974Z,101493.84
2022-12-25T21:26:27.813Z,101480.16
2022-12-25T21:29:00.906Z,101479.59
2022-12-25T21:31:50.559Z,101488.91
2022-12-25T21:34:19.329Z,101461.03
2022-12-25T21:36:48.055Z,101461.78
2022-12-25T21:39:17.049Z,101456.41
2022-12-25T21:41:45.688Z,101449.72
2022-12-25T21:44:16.897Z,101420.22
2022-12-25T21:46:47.553Z,101403.59
2022-12-25T21:49:38.112Z,101415.84
2022-12-25T21:52:09.911Z,101401.19
2022-12-25T21:54:45.334Z,101397.19
2022-12-25T21:57:14.244Z,101394.84
2022-12-25T21:59:42.873Z,101369.81
2022-12-25T22:02:13.970Z,101366.00
2022-12-25T22:04:45.938Z,101346.00
2022-12-25T22:07:21.391Z,101318.41
2022-12-25T22:09:52.432Z,101306.66
2022-12-25T22:12:44.849Z,101309.00
2022-12-25T22:15:13.752Z,101301.47
2022-12-25T22:18:02.627Z,101300.44
2022-12-25T22:20:39.117Z,101297.22
2022-12-25T22:23:08.537Z,101289.00
2022-12-25T22:25:37.143Z,101284.09
2022-12-25T22:28:09.241Z,101278.94
2022-12-25T22:30:45.042Z,101271.97
2022-12-25T22:33:16.931Z,101271.81
2022-12-25T22:35:45.652Z,101270.91
2022-12-25T22:38:17.208Z,101254.66
2022-12-25T22:40:45.910Z,101271.88
2022-12-25T22:43:43.370Z,101265.84
2022-12-25T22:46:13.502Z,101254.75
2022-12-25T22:48:42.400Z,101237.94
2022-12-25T22:51:14.497Z,101229.94
2022-12-25T22:53:45.626Z,101223.97
2022-12-25T22:56:17.537Z,101216.16
2022-12-25T22:58:51.848Z,101223.41
2022-12-25T23:01:23.256Z,101212.59
2022-12-25T23:03:55.646Z,101200.53
2022-12-25T23:06:24.424Z,101184.41
2022-12-25T23:08:53.084Z,101194.41
2022-12-25T23:11:25.648Z,101197.56
2022-12-25T23:14:12.740Z,101194.38
2022-12-25T23:16:44.708Z,101180.81
2022-12-25T23:19:32.871Z,101179.59
2022-12-25T23:22:20.060Z,101163.44
2022-12-25T23:25:09.968Z,101154.97
2022-12-25T23:27:38.997Z,101156.78
2022-12-25T23:30:18.563Z,101170.00
2022-12-25T23:32:47.368Z,101177.31
2022-12-25T23:35:16.763Z,101177.25
2022-12-25T23:37:48.463Z,101168.22
2022-12-25T23:40:19.485Z,101158.59
2022-12-25T23:42:51.357Z,101151.44
2022-12-25T23:45:20.058Z,101130.75
2022-12-25T23:47:50.100Z,101130.03
2022-12-25T23:50:18.823Z,101128.38
2022-12-25T23:52:47.430Z,101120.00
2022-12-25T23:55:16.200Z,101118.09
2022-12-25T23:57:44.854Z,101101.03
